Time;durP1;ratioP1;P1;durP2;ratioP2;P2;SDS_P1;SDS_P2;PMS_P1;PMS_P2;Temp;Humidity;BMP_temperature;BMP_pressure;BME280_temperature;BME280_humidity;BME280_pressure;Samples;Min_cycle;Max_cycle;Signal;HPM_P1;HPM_P2
2022/08/27 00:02:20;;;;;;;20.73;9.40;;;;;;;28.08;26.67;99895.91;5000028;28;20060;-74
2022/08/27 00:04:46;;;;;;;33.90;16.48;;;;;;;28.19;29.24;99894.03;5016848;28;20053;-73
2022/08/27 00:07:12;;;;;;;20.27;10.32;;;;;;;28.16;27.77;99906.34;5016584;28;20045;-74
2022/08/27 00:09:39;;;;;;;19.77;9.77;;;;;;;28.19;27.70;99903.06;5000265;28;20049;-73
2022/08/27 00:12:07;;;;;;;28.98;13.93;;;;;;;28.27;29.28;99907.19;5032909;28;20493;-74
2022/08/27 00:14:33;;;;;;;20.00;10.57;;;;;;;28.29;28.11;99913.22;5032875;28;20474;-75
2022/08/27 00:16:59;;;;;;;28.23;12.80;;;;;;;28.24;29.01;99910.47;5000441;28;20075;-74
2022/08/27 00:19:25;;;;;;;34.30;15.38;;;;;;;28.22;30.05;99904.44;5016466;28;20049;-75
2022/08/27 00:21:51;;;;;;;27.90;14.65;;;;;;;28.17;30.48;99907.97;5016377;28;20079;-74
2022/08/27 00:24:17;;;;;;;26.27;12.70;;;;;;;28.03;29.96;99910.38;4999902;28;20049;-74
2022/08/27 00:26:43;;;;;;;29.95;15.88;;;;;;;27.99;31.28;99911.16;4983869;28;20053;-75
2022/08/27 00:29:09;;;;;;;28.50;13.68;;;;;;;27.94;30.79;99905.66;4983766;28;20076;-74
2022/08/27 00:31:34;;;;;;;33.85;16.00;;;;;;;27.94;31.17;99911.13;5032482;28;20073;-74
2022/08/27 00:34:00;;;;;;;36.85;17.83;;;;;;;27.93;31.92;99917.69;5033089;28;20386;-74
2022/08/27 00:36:26;;;;;;;32.83;13.55;;;;;;;27.88;31.60;99913.00;5016040;28;20575;-74
2022/08/27 00:38:52;;;;;;;26.40;12.27;;;;;;;27.89;29.91;99919.31;5015802;28;20037;-74
2022/08/27 00:41:19;;;;;;;26.90;13.23;;;;;;;27.78;30.24;99914.81;5032020;28;20068;-74
2022/08/27 00:43:51;;;;;;;27.77;14.15;;;;;;;27.88;30.69;99917.63;5015537;28;20412;-74
2022/08/27 00:46:22;;;;;;;30.33;13.55;;;;;;;27.84;30.32;99911.88;5032610;28;20051;-74
2022/08/27 00:48:50;;;;;;;28.27;13.48;;;;;;;27.71;29.51;99912.31;5032184;28;20585;-74
2022/08/27 00:51:15;;;;;;;32.17;13.20;;;;;;;27.68;30.79;99914.75;5033513;28;20088;-74
2022/08/27 00:53:41;;;;;;;36.67;12.95;;;;;;;27.69;30.13;99916.41;5032276;28;20065;-74
2022/08/27 00:56:15;;;;;;;38.20;14.43;;;;;;;27.85;30.77;99916.22;4999368;28;20045;-74
2022/08/27 00:58:50;;;;;;;56.42;13.75;;;;;;;27.83;28.33;99920.31;5033688;28;20083;-74
2022/08/27 01:01:19;;;;;;;53.80;11.93;;;;;;;27.74;27.75;99913.69;5032400;28;20497;-74
2022/08/27 01:03:48;;;;;;;42.42;13.23;;;;;;;27.79;28.00;99919.19;5000800;28;20077;-74
2022/08/27 01:06:15;;;;;;;44.63;11.68;;;;;;;27.73;27.29;99920.25;5000373;28;20060;-75
2022/08/27 01:08:45;;;;;;;32.20;13.48;;;;;;;27.77;29.25;99903.06;5032054;28;20084;-74
2022/08/27 01:11:11;;;;;;;28.75;13.75;;;;;;;27.70;30.62;99921.59;5015270;28;20037;-75
2022/08/27 01:13:42;;;;;;;35.13;10.65;;;;;;;27.64;28.18;99921.81;5000478;28;20057;-74
2022/08/27 01:16:08;;;;;;;26.48;10.85;;;;;;;27.60;28.30;99916.06;5015344;28;20041;-75
2022/08/27 01:18:36;;;;;;;25.70;8.80;;;;;;;27.60;27.51;99917.97;4999229;28;20489;-73
2022/08/27 01:21:05;;;;;;;24.95;10.30;;;;;;;27.70;27.43;99918.03;5031997;28;20292;-74
2022/08/27 01:23:31;;;;;;;22.73;9.13;;;;;;;27.62;26.68;99926.72;5015254;28;20072;-74
2022/08/27 01:25:57;;;;;;;24.17;10.23;;;;;;;27.74;27.67;99919.16;5015166;28;20497;-74
2022/08/27 01:28:24;;;;;;;25.13;10.95;;;;;;;27.70;28.26;99920.78;4998905;28;20481;-74
2022/08/27 01:30:49;;;;;;;27.60;10.48;;;;;;;27.67;27.98;99918.56;5014977;28;20048;-74
2022/08/27 01:33:18;;;;;;;21.75;9.95;;;;;;;27.76;27.91;99923.28;4998736;28;20041;-75
2022/08/27 01:35:46;;;;;;;28.70;11.70;;;;;;;27.70;29.19;99920.78;5031276;28;20041;-75
2022/08/27 01:38:12;;;;;;;21.35;10.20;;;;;;;27.59;28.27;99919.03;5014820;28;20041;-74
2022/08/27 01:40:38;;;;;;;28.27;10.95;;;;;;;27.62;28.52;99924.81;5031076;28;20175;-74
2022/08/27 01:43:04;;;;;;;15.05;8.13;;;;;;;27.58;27.31;99925.59;5031508;28;20497;-74
2022/08/27 01:45:33;;;;;;;23.88;9.75;;;;;;;27.74;28.20;99919.16;4998449;28;20619;-74
2022/08/27 01:48:00;;;;;;;24.70;10.75;;;;;;;27.70;28.58;99923.50;4998368;28;20037;-74
2022/08/27 01:50:29;;;;;;;15.57;8.40;;;;;;;27.71;26.76;99931.44;4998223;28;20041;-74
2022/08/27 01:52:55;;;;;;;29.77;11.98;;;;;;;27.70;29.24;99926.22;5030906;28;20095;-73
2022/08/27 01:55:24;;;;;;;35.92;13.63;;;;;;;27.78;30.74;99923.00;4998076;28;20060;-74
2022/08/27 01:57:51;;;;;;;31.70;11.93;;;;;;;27.70;29.67;99931.69;5014325;28;20378;-75
2022/08/27 02:00:24;;;;;;;20.90;10.32;;;;;;;27.71;27.77;99927.88;5014479;28;20107;-74
2022/08/27 02:02:50;;;;;;;22.52;11.02;;;;;;;27.51;28.51;99928.53;5030802;28;20053;-74
2022/08/27 02:05:17;;;;;;;29.80;12.05;;;;;;;27.56;29.91;99931.31;5014247;28;20049;-75
2022/08/27 02:07:43;;;;;;;29.55;13.85;;;;;;;27.42;30.53;99913.75;5030907;28;20041;-75
2022/08/27 02:10:14;;;;;;;31.70;13.85;;;;;;;27.46;30.43;99930.41;5030846;28;20113;-74
2022/08/27 02:12:40;;;;;;;30.27;14.27;;;;;;;27.23;31.41;99914.38;5030755;28;20041;-74
2022/08/27 02:15:06;;;;;;;29.05;15.32;;;;;;;27.25;31.81;99934.00;5014233;28;20125;-76
2022/08/27 02:17:33;;;;;;;34.65;16.75;;;;;;;27.13;30.80;99926.00;5014296;28;20136;-74
2022/08/27 02:19:59;;;;;;;37.25;17.35;;;;;;;27.10;31.17;99933.88;5014214;28;20505;-73
2022/08/27 02:22:26;;;;;;;42.00;18.15;;;;;;;27.12;31.45;99932.53;5030385;28;20041;-74
2022/08/27 02:24:52;;;;;;;47.53;16.85;;;;;;;27.05;31.41;99940.09;5030288;28;20038;-74
2022/08/27 02:27:19;;;;;;;40.00;19.30;;;;;;;27.09;31.59;99932.22;4997912;28;20048;-73
2022/08/27 02:29:46;;;;;;;48.22;18.88;;;;;;;27.01;31.84;99938.13;5030305;28;20056;-73
2022/08/27 02:32:13;;;;;;;42.60;19.58;;;;;;;27.07;31.65;99937.09;5030481;28;20045;-74
2022/08/27 02:34:39;;;;;;;45.13;20.92;;;;;;;26.97;31.82;99940.53;5031555;28;20048;-73
2022/08/27 02:37:06;;;;;;;51.63;20.42;;;;;;;26.86;31.43;99932.53;4997568;28;20045;-73
2022/08/27 02:39:33;;;;;;;54.45;23.00;;;;;;;26.96;31.51;99938.91;5014157;28;20141;-73
2022/08/27 02:41:58;;;;;;;48.15;21.52;;;;;;;26.96;32.18;99944.38;5013808;28;20060;-73
2022/08/27 02:44:24;;;;;;;54.47;24.23;;;;;;;26.99;31.86;99948.47;4997225;28;20045;-75
2022/08/27 02:46:51;;;;;;;55.90;22.30;;;;;;;27.02;32.32;99937.03;5013756;28;20084;-73
2022/08/27 02:49:17;;;;;;;47.50;20.42;;;;;;;26.98;31.89;99944.94;5030138;28;20056;-74
2022/08/27 02:51:43;;;;;;;43.55;20.23;;;;;;;26.93;31.47;99963.13;4997190;28;20524;-74
2022/08/27 02:54:09;;;;;;;45.20;20.48;;;;;;;26.92;31.79;99961.50;5013704;28;20091;-75
2022/08/27 02:56:38;;;;;;;44.80;19.92;;;;;;;26.86;33.09;99955.19;5014189;28;20103;-74
2022/08/27 02:59:03;;;;;;;38.33;19.65;;;;;;;26.77;34.34;99966.78;4997138;28;20037;-73
2022/08/27 03:01:29;;;;;;;45.03;18.50;;;;;;;26.70;35.50;99974.31;5012997;28;20044;-74
2022/08/27 03:03:58;;;;;;;38.60;17.67;;;;;;;26.57;35.39;99975.47;5013332;28;20045;-73
2022/08/27 03:06:24;;;;;;;36.22;16.83;;;;;;;26.20;36.50;99985.34;5013087;28;20561;-74
2022/08/27 03:08:50;;;;;;;38.63;17.10;;;;;;;26.00;37.09;99979.63;5013135;28;20041;-74
2022/08/27 03:11:16;;;;;;;40.00;16.98;;;;;;;25.95;37.69;99976.78;4996819;28;20504;-74
2022/08/27 03:13:41;;;;;;;38.67;16.98;;;;;;;25.87;38.04;99969.03;4996871;28;20453;-77
2022/08/27 03:16:07;;;;;;;39.10;15.75;;;;;;;25.94;38.14;99981.38;4996917;28;20484;-74
2022/08/27 03:18:33;;;;;;;34.80;17.10;;;;;;;25.96;38.16;99978.41;4996806;28;20051;-75
2022/08/27 03:21:00;;;;;;;40.22;16.23;;;;;;;25.96;38.40;99979.25;5013101;28;20100;-74
2022/08/27 03:23:28;;;;;;;36.58;16.85;;;;;;;25.97;38.12;99966.47;5013179;28;20051;-74
2022/08/27 03:25:57;;;;;;;30.98;17.20;;;;;;;26.08;37.95;99987.34;5029391;28;20452;-74
2022/08/27 03:28:27;;;;;;;40.85;16.67;;;;;;;26.06;38.24;99976.69;5029571;28;20143;-74
2022/08/27 03:31:00;;;;;;;40.47;16.00;;;;;;;26.09;37.98;99989.00;5029471;28;20041;-74
2022/08/27 03:33:31;;;;;;;37.63;16.42;;;;;;;26.10;38.14;99987.91;5013681;28;20041;-74
2022/08/27 03:35:57;;;;;;;37.10;17.60;;;;;;;26.09;38.04;99984.34;5030703;28;20116;-74
2022/08/27 03:38:23;;;;;;;33.13;13.85;;;;;;;26.14;35.52;99994.50;4996430;28;20140;-75
2022/08/27 03:40:49;;;;;;;29.58;15.52;;;;;;;26.32;35.43;99995.03;5012941;28;20037;-75
2022/08/27 03:43:19;;;;;;;30.23;13.57;;;;;;;26.45;33.49;99999.31;5013045;28;20129;-75
2022/08/27 03:45:45;;;;;;;36.55;16.20;;;;;;;26.62;34.61;99986.44;5013234;28;20460;-75
2022/08/27 03:48:13;;;;;;;36.17;15.60;;;;;;;26.75;34.71;99988.00;5030718;28;20087;-75
2022/08/27 03:50:41;;;;;;;34.85;16.45;;;;;;;26.90;35.53;99980.00;4996891;28;20045;-74
2022/08/27 03:53:08;;;;;;;42.97;19.35;;;;;;;26.97;35.68;99988.81;5030506;28;20037;-75
2022/08/27 03:55:34;;;;;;;60.88;20.58;;;;;;;26.92;34.46;99983.31;5012956;28;20559;-74
2022/08/27 03:58:02;;;;;;;57.85;18.83;;;;;;;26.97;34.48;99981.44;4997163;28;20533;-75
2022/08/27 04:00:28;;;;;;;41.40;16.60;;;;;;;27.06;33.81;99982.63;4996378;28;20041;-74
2022/08/27 04:02:54;;;;;;;36.90;16.13;;;;;;;27.15;34.20;99974.81;4996538;28;20057;-74
2022/08/27 04:05:21;;;;;;;39.03;16.58;;;;;;;27.23;32.86;99983.34;4980421;28;20600;-74
2022/08/27 04:07:47;;;;;;;47.38;17.60;;;;;;;27.15;33.86;99983.00;5030365;28;20049;-74
2022/08/27 04:10:15;;;;;;;41.03;17.73;;;;;;;27.41;34.08;99980.31;4997484;28;20053;-75
2022/08/27 04:12:41;;;;;;;38.85;19.45;;;;;;;27.44;34.55;99979.78;5030097;28;20060;-74
2022/08/27 04:15:08;;;;;;;35.97;18.60;;;;;;;27.59;34.28;99979.09;5012858;28;20060;-74
2022/08/27 04:17:34;;;;;;;55.85;20.23;;;;;;;27.54;34.35;99979.03;5031811;28;20048;-75
2022/08/27 04:19:59;;;;;;;46.45;19.17;;;;;;;27.62;34.04;99984.03;5016443;28;20385;-74
2022/08/27 04:22:26;;;;;;;42.25;18.55;;;;;;;27.70;33.76;99980.81;5016503;28;20133;-74
2022/08/27 04:24:53;;;;;;;44.38;18.88;;;;;;;27.63;33.86;99970.13;5032717;28;20088;-74
2022/08/27 04:27:19;;;;;;;44.00;19.27;;;;;;;27.73;33.19;99993.94;5032473;28;20045;-75
2022/08/27 04:29:45;;;;;;;47.83;19.75;;;;;;;27.75;33.05;99999.97;4984026;28;20071;-75
2022/08/27 04:32:11;;;;;;;44.42;18.00;;;;;;;27.71;32.40;99996.09;4967872;28;20048;-75
2022/08/27 04:34:37;;;;;;;42.63;17.08;;;;;;;27.72;33.16;99982.19;5015783;28;20049;-74
2022/08/27 04:37:04;;;;;;;37.63;16.98;;;;;;;27.74;34.60;99981.94;4999654;28;20599;-74
2022/08/27 04:39:30;;;;;;;41.08;17.88;;;;;;;27.79;35.20;99993.72;5032719;28;20088;-75
2022/08/27 04:41:58;;;;;;;59.95;20.02;;;;;;;27.95;33.51;100000.16;5015844;28;20073;-75
2022/08/27 04:44:26;;;;;;;41.78;17.02;;;;;;;28.04;33.79;99995.84;5033293;28;20042;-75
2022/08/27 04:46:57;;;;;;;54.28;19.98;;;;;;;28.19;33.84;99989.66;4999469;28;20478;-74
2022/08/27 04:49:24;;;;;;;52.65;20.77;;;;;;;28.07;34.30;99976.22;5015694;28;20044;-75
2022/08/27 04:51:49;;;;;;;48.60;20.70;;;;;;;28.14;34.39;99984.19;5015603;28;20459;-74
2022/08/27 04:54:15;;;;;;;50.67;20.98;;;;;;;28.26;33.95;99990.25;5016033;28;20133;-75
2022/08/27 04:56:41;;;;;;;58.97;23.30;;;;;;;28.33;33.39;99988.94;5032088;28;20175;-75
2022/08/27 04:59:08;;;;;;;59.00;25.08;;;;;;;28.43;33.26;99997.16;4999193;28;20088;-74
2022/08/27 05:01:35;;;;;;;70.60;26.45;;;;;;;28.46;32.84;99991.16;5031967;28;20052;-74
2022/08/27 05:04:01;;;;;;;61.75;27.65;;;;;;;28.50;32.09;99991.50;5031994;28;20187;-75
2022/08/27 05:06:27;;;;;;;71.80;28.58;;;;;;;28.56;31.76;99995.91;4999231;28;20073;-75
2022/08/27 05:08:53;;;;;;;49.80;23.92;;;;;;;28.63;31.53;99997.31;5015573;28;20049;-75
2022/08/27 05:11:20;;;;;;;56.13;24.15;;;;;;;28.66;31.47;99979.56;5015263;28;20049;-75
2022/08/27 05:13:46;;;;;;;60.47;23.35;;;;;;;28.67;31.74;99983.94;5048672;28;20405;-75
2022/08/27 05:16:17;;;;;;;57.75;24.25;;;;;;;28.93;31.65;99991.97;4998988;28;20152;-75
2022/08/27 05:18:44;;;;;;;69.47;25.33;;;;;;;28.91;30.96;99999.59;5031970;28;20045;-75
2022/08/27 05:21:22;;;;;;;90.82;25.73;;;;;;;29.07;31.12;99990.41;5015233;28;20052;-75
2022/08/27 05:23:48;;;;;;;70.15;23.70;;;;;;;29.06;31.44;99987.94;5031767;28;20246;-74
2022/08/27 05:26:14;;;;;;;73.10;24.08;;;;;;;29.20;31.77;99998.06;5015384;28;20462;-75
2022/08/27 05:28:40;;;;;;;60.58;22.17;;;;;;;29.36;31.75;99997.03;4998078;28;20053;-75
2022/08/27 05:31:08;;;;;;;53.35;21.05;;;;;;;29.56;31.10;99991.56;5014748;28;20548;-75
2022/08/27 05:33:37;;;;;;;50.10;20.38;;;;;;;29.65;31.08;99993.78;5031411;28;20045;-75
2022/08/27 05:36:04;;;;;;;53.63;21.08;;;;;;;29.80;31.20;100002.00;5031319;28;20051;-75
2022/08/27 05:38:32;;;;;;;53.10;20.92;;;;;;;29.93;31.34;100001.44;5031431;28;20124;-75
2022/08/27 05:41:07;;;;;;;53.63;21.48;;;;;;;30.11;30.16;100000.84;5031107;28;20053;-75
2022/08/27 05:43:37;;;;;;;49.22;21.77;;;;;;;30.15;30.02;99988.25;5014923;28;20563;-75
2022/08/27 05:46:07;;;;;;;64.43;21.38;;;;;;;30.29;29.43;99994.84;5032022;28;20061;-75
2022/08/27 05:48:36;;;;;;;47.25;20.50;;;;;;;30.47;29.12;100002.47;5030975;28;20060;-77
2022/08/27 05:51:11;;;;;;;53.78;21.15;;;;;;;30.64;28.36;100001.03;5030785;28;20057;-75
2022/08/27 05:53:38;;;;;;;44.58;19.98;;;;;;;30.62;28.11;100000.50;4998033;28;20463;-75
2022/08/27 05:56:04;;;;;;;51.70;21.13;;;;;;;30.78;27.71;99998.53;5014483;28;20046;-75
2022/08/27 06:01:19;;;;;;;42.80;19.75;;;;;;;31.13;26.59;100001.94;5000393;28;20049;-75
2022/08/27 06:03:45;;;;;;;39.70;20.38;;;;;;;31.15;26.49;99996.16;5014116;28;20063;-75
2022/08/27 06:06:11;;;;;;;49.55;20.58;;;;;;;31.34;26.67;99997.16;5030755;28;20049;-76
2022/08/27 06:08:37;;;;;;;44.83;22.02;;;;;;;31.52;26.59;99995.66;4997937;28;20046;-75
2022/08/27 06:11:05;;;;;;;48.78;22.42;;;;;;;31.75;26.26;99994.94;5031794;28;20037;-75
2022/08/27 06:13:33;;;;;;;48.17;21.35;;;;;;;31.85;26.49;100001.19;5030289;28;20049;-75
2022/08/27 06:16:06;;;;;;;59.42;21.42;;;;;;;32.01;26.46;99996.38;5014084;28;20420;-76
2022/08/27 06:18:33;;;;;;;47.78;22.33;;;;;;;32.08;26.31;100003.16;4997726;28;20050;-76
2022/08/27 06:20:59;;;;;;;53.38;23.20;;;;;;;32.15;26.11;100000.88;4997623;28;20037;-75
2022/08/27 06:23:26;;;;;;;60.60;24.30;;;;;;;32.32;25.94;99994.97;5013560;28;20045;-76
2022/08/27 06:25:52;;;;;;;52.15;25.10;;;;;;;32.44;25.64;100000.91;5014056;28;20079;-75
2022/08/27 06:28:22;;;;;;;43.58;22.58;;;;;;;32.75;24.83;99995.84;5031747;28;20085;-75
2022/08/27 06:30:49;;;;;;;47.67;24.90;;;;;;;32.81;24.72;99990.00;5014149;28;20471;-75
2022/08/27 06:33:15;;;;;;;51.72;26.38;;;;;;;33.01;24.88;99995.25;4997512;28;20236;-75
2022/08/27 06:35:41;;;;;;;54.05;26.60;;;;;;;33.16;24.79;99995.03;4981136;28;20508;-75
2022/08/27 06:38:07;;;;;;;54.03;25.70;;;;;;;33.35;24.16;99997.78;4997365;28;20041;-75
2022/08/27 06:40:33;;;;;;;45.17;23.77;;;;;;;33.53;23.62;99991.47;5012651;28;20513;-75
2022/08/27 06:42:59;;;;;;;40.38;20.42;;;;;;;33.74;22.81;99985.34;4997206;28;20417;-75
2022/08/27 06:45:25;;;;;;;49.60;22.88;;;;;;;33.90;23.24;99991.44;5030162;28;20128;-75
2022/08/27 06:47:51;;;;;;;47.47;23.23;;;;;;;34.04;22.73;99984.03;4997515;28;20120;-74
2022/08/27 06:50:19;;;;;;;57.63;23.08;;;;;;;34.29;22.40;99994.56;4997249;28;20045;-75
2022/08/27 06:52:46;;;;;;;51.45;23.38;;;;;;;34.41;21.81;99996.84;5029945;28;20057;-74
2022/08/27 06:55:12;;;;;;;42.17;21.30;;;;;;;34.59;21.42;99993.19;4997272;28;20049;-74
2022/08/27 06:57:37;;;;;;;52.28;22.58;;;;;;;34.78;21.08;99989.16;5013476;28;20048;-75
2022/08/27 07:00:05;;;;;;;56.15;21.70;;;;;;;35.00;21.00;99985.69;4997063;28;20037;-75
2022/08/27 07:02:31;;;;;;;44.20;22.20;;;;;;;34.92;20.39;99981.72;5012942;28;20053;-75
2022/08/27 07:04:57;;;;;;;43.35;20.70;;;;;;;35.11;20.18;99978.81;4997081;28;20523;-75
2022/08/27 07:07:23;;;;;;;36.72;19.63;;;;;;;35.37;19.59;99977.97;4997374;28;20041;-75
2022/08/27 07:09:50;;;;;;;51.05;21.00;;;;;;;35.57;19.23;99984.94;5013585;28;20550;-75
2022/08/27 07:12:15;;;;;;;40.67;21.55;;;;;;;35.80;19.39;99971.94;4997026;28;20038;-75
2022/08/27 07:14:41;;;;;;;59.30;23.50;;;;;;;35.96;19.08;99982.31;4996983;28;20068;-75
2022/08/27 07:17:08;;;;;;;47.92;22.52;;;;;;;36.06;18.93;99967.41;4981401;28;20132;-75
2022/08/27 07:19:37;;;;;;;50.53;22.80;;;;;;;36.37;19.00;99982.03;5030439;28;20042;-74
2022/08/27 07:22:04;;;;;;;41.70;18.50;;;;;;;36.66;18.74;99979.56;5014025;28;20639;-75
2022/08/27 07:24:30;;;;;;;48.35;21.73;;;;;;;36.74;18.49;99976.81;5029377;28;20095;-75
2022/08/27 07:26:58;;;;;;;44.78;21.33;;;;;;;37.02;18.13;99982.91;5013458;28;20128;-75
2022/08/27 07:29:24;;;;;;;38.05;21.08;;;;;;;37.34;17.92;99982.47;5013760;28;20120;-75
2022/08/27 07:31:49;;;;;;;32.95;19.15;;;;;;;37.68;17.54;99978.91;4996739;28;20179;-75
2022/08/27 07:34:15;;;;;;;28.25;16.15;;;;;;;38.07;16.99;99970.34;4996593;28;20053;-75
2022/08/27 07:36:43;;;;;;;34.58;19.80;;;;;;;38.46;16.93;99975.59;5013473;28;20052;-75
2022/08/27 07:39:09;;;;;;;44.92;21.30;;;;;;;39.07;16.18;99977.75;5013120;28;20045;-76
2022/08/27 07:44:23;;;;;;;40.83;20.63;;;;;;;40.29;15.20;99977.91;4980311;28;20111;-75
2022/08/27 07:44:24;;;;;;;42.05;19.63;;;;;;;42.85;12.66;99982.72;4999268;28;20271;-75
2022/08/27 07:46:50;;;;;;;37.88;17.20;;;;;;;45.45;10.67;99978.38;5013240;28;20045;-76
2022/08/27 07:49:17;;;;;;;26.10;15.52;;;;;;;47.59;9.46;99975.41;5013007;28;20048;-76
2022/08/27 07:51:43;;;;;;;31.35;15.60;;;;;;;49.53;7.78;99987.50;4998365;28;20155;-76
2022/08/27 07:54:09;;;;;;;27.05;14.82;;;;;;;50.94;6.82;99987.28;5000435;28;20052;-76
2022/08/27 07:56:35;;;;;;;26.20;14.88;;;;;;;52.39;5.88;99984.16;5016869;28;20049;-76
2022/08/27 07:59:01;;;;;;;25.88;13.57;;;;;;;53.64;5.52;99979.31;5016594;28;20099;-76
2022/08/27 08:01:28;;;;;;;24.42;12.88;;;;;;;54.75;4.76;99977.00;5000574;28;20576;-77
2022/08/27 08:03:54;;;;;;;21.92;12.93;;;;;;;55.62;4.28;99979.41;4984214;28;20049;-76
2022/08/27 08:06:20;;;;;;;27.00;12.93;;;;;;;56.39;4.07;99975.31;5033142;28;20073;-76
2022/08/27 08:08:46;;;;;;;26.17;12.07;;;;;;;56.94;3.34;99969.72;5000154;28;20516;-76
2022/08/27 08:11:14;;;;;;;17.95;11.88;;;;;;;57.54;3.08;99965.38;5016486;28;20071;-76
2022/08/27 08:13:40;;;;;;;23.38;11.98;;;;;;;57.90;3.00;99964.75;4984001;28;20128;-76
2022/08/27 08:16:06;;;;;;;19.17;11.70;;;;;;;58.20;2.51;99966.78;4983935;28;20050;-77
2022/08/27 08:18:34;;;;;;;23.38;11.88;;;;;;;58.71;2.91;99962.13;5000023;28;20041;-77
2022/08/27 08:21:01;;;;;;;25.58;11.32;;;;;;;59.06;2.44;99960.53;5032892;28;20496;-78
2022/08/27 08:23:28;;;;;;;15.93;10.23;;;;;;;59.31;1.88;99947.94;5033035;28;20049;-77
2022/08/27 08:25:54;;;;;;;19.95;11.15;;;;;;;59.51;1.75;99944.50;5034195;28;20041;-77
2022/08/27 08:28:19;;;;;;;23.10;11.38;;;;;;;59.69;1.62;99947.31;5033945;28;20049;-77
2022/08/27 08:30:46;;;;;;;20.40;10.45;;;;;;;59.98;1.58;99945.47;5032707;28;20566;-77
2022/08/27 08:33:12;;;;;;;17.38;10.52;;;;;;;60.38;1.62;99940.09;4999833;28;20056;-77
2022/08/27 08:35:38;;;;;;;15.65;9.45;;;;;;;60.74;1.37;99939.06;4983442;28;20041;-77
2022/08/27 08:38:04;;;;;;;19.52;10.35;;;;;;;60.85;1.08;99938.50;5032578;28;20048;-77
2022/08/27 08:40:39;;;;;;;20.33;9.68;;;;;;;61.02;1.18;99936.75;4999721;28;20124;-79
2022/08/27 08:43:06;;;;;;;16.02;8.18;;;;;;;59.87;0.82;99925.13;5032045;28;20098;-75
2022/08/27 08:45:35;;;;;;;21.17;9.45;;;;;;;58.62;1.51;99912.63;5032444;28;20088;-77
2022/08/27 08:48:08;;;;;;;25.40;8.98;;;;;;;58.53;1.95;99907.69;5015737;28;20128;-79
2022/08/27 08:50:54;;;;;;;16.77;8.90;;;;;;;58.75;1.55;99911.22;4999245;28;20139;-77
2022/08/27 08:53:49;;;;;;;19.33;8.80;;;;;;;58.97;1.32;99919.59;5033385;28;20049;-76
2022/08/27 08:56:25;;;;;;;19.77;8.00;;;;;;;58.12;1.25;99908.25;5032191;28;20048;-76
2022/08/27 08:58:58;;;;;;;20.25;8.27;;;;;;;57.58;0.92;99919.47;4999385;28;20136;-76
2022/08/27 09:01:25;;;;;;;12.02;7.28;;;;;;;56.35;1.98;99900.47;4982802;28;20041;-76
2022/08/27 09:03:57;;;;;;;10.65;6.00;;;;;;;55.77;1.97;99899.94;5014458;28;20050;-76
2022/08/27 09:06:42;;;;;;;14.88;6.68;;;;;;;56.39;1.82;99899.09;4999023;28;20187;-76
2022/08/27 09:09:24;;;;;;;17.27;7.22;;;;;;;57.14;1.80;99893.03;5015264;28;20413;-76
2022/08/27 09:12:13;;;;;;;15.55;6.63;;;;;;;58.17;1.52;99898.25;5033125;28;20052;-77
2022/08/27 09:14:46;;;;;;;12.95;6.22;;;;;;;58.74;1.15;99901.03;5031816;28;20072;-76
2022/08/27 09:17:12;;;;;;;12.20;5.93;;;;;;;58.51;0.87;99892.25;5048379;28;20137;-76
2022/08/27 09:19:38;;;;;;;8.02;5.75;;;;;;;58.43;0.96;99888.94;5031745;28;20136;-76
2022/08/27 09:22:23;;;;;;;12.30;6.03;;;;;;;59.05;0.72;99893.03;5031727;28;20180;-76
2022/08/27 09:25:26;;;;;;;14.55;5.32;;;;;;;58.93;0.93;99885.38;5031459;28;20041;-75
2022/08/27 09:27:55;;;;;;;8.30;5.05;;;;;;;58.75;0.91;99894.03;5014526;28;20428;-76
2022/08/27 09:30:24;;;;;;;12.15;6.25;;;;;;;59.36;0.60;99892.81;5031407;28;20163;-76
2022/08/27 09:32:55;;;;;;;14.18;5.30;;;;;;;59.76;0.63;99878.94;4998424;28;20041;-76
2022/08/27 09:35:22;;;;;;;10.98;5.38;;;;;;;60.45;0.19;99888.06;4998337;28;20102;-76
2022/08/27 09:37:52;;;;;;;10.70;5.40;;;;;;;60.78;0.17;99895.78;4982342;28;20048;-76
2022/08/27 09:40:26;;;;;;;13.60;5.45;;;;;;;61.02;0.00;99874.31;5031400;28;20049;-75
2022/08/27 09:42:55;;;;;;;9.73;5.70;;;;;;;61.26;0.31;99891.47;5014684;28;20048;-77
2022/08/27 09:45:24;;;;;;;11.63;5.70;;;;;;;60.73;0.08;99888.66;5031403;28;20093;-76
2022/08/27 09:47:54;;;;;;;9.27;5.88;;;;;;;60.54;0.14;99884.34;4982233;28;20056;-76
2022/08/27 09:50:23;;;;;;;12.07;5.82;;;;;;;59.59;0.70;99871.22;5014435;28;20042;-77
2022/08/27 09:52:58;;;;;;;13.43;5.85;;;;;;;59.37;0.47;99877.19;5030919;28;20555;-76
2022/08/27 09:55:47;;;;;;;13.90;5.80;;;;;;;58.43;1.11;99876.69;5015304;28;20055;-76
2022/08/27 09:58:22;;;;;;;18.15;7.05;;;;;;;55.72;2.01;99874.81;5014358;28;20048;-76
2022/08/27 10:00:56;;;;;;;16.55;7.30;;;;;;;54.55;2.55;99866.16;5014474;28;20086;-76
2022/08/27 10:03:22;;;;;;;14.07;6.97;;;;;;;55.21;2.56;99856.13;5030531;28;20536;-76
2022/08/27 10:05:49;;;;;;;12.98;8.23;;;;;;;54.08;2.63;99867.00;5014089;28;20041;-76
2022/08/27 10:08:25;;;;;;;13.38;8.73;;;;;;;50.84;4.09;99846.69;4998072;28;20467;-75
2022/08/27 10:11:04;;;;;;;17.23;9.18;;;;;;;49.29;5.26;99846.41;5030735;28;20140;-76
2022/08/27 10:13:46;;;;;;;24.75;9.50;;;;;;;49.88;5.25;99846.03;5014232;28;20045;-76
2022/08/27 10:17:06;;;;;;;16.15;10.60;;;;;;;50.69;4.88;99850.16;5030540;28;20140;-77
2022/08/27 10:19:44;;;;;;;13.25;9.73;;;;;;;49.18;5.63;99854.91;4977422;28;20041;-75
2022/08/27 10:22:21;;;;;;;19.92;10.68;;;;;;;47.86;6.21;99835.03;4977283;28;20044;-75
2022/08/27 10:25:23;;;;;;;21.17;10.30;;;;;;;46.24;6.99;99853.25;4999173;28;20053;-76
2022/08/27 10:28:03;;;;;;;13.18;10.50;;;;;;;44.24;8.28;99842.41;5014653;28;20179;-74
2022/08/27 10:30:53;;;;;;;17.33;10.45;;;;;;;43.74;8.81;99829.53;4997605;28;20110;-75
2022/08/27 10:33:32;;;;;;;16.42;11.32;;;;;;;44.27;8.62;99834.06;5013927;28;20509;-75
2022/08/27 10:36:08;;;;;;;18.42;10.75;;;;;;;44.67;8.56;99837.06;5030135;28;20033;-74
2022/08/27 10:38:43;;;;;;;19.23;10.98;;;;;;;45.82;7.69;99844.44;5013867;28;20045;-74
2022/08/27 10:41:17;;;;;;;20.58;10.90;;;;;;;46.51;7.25;99851.84;5014014;28;20079;-75
2022/08/27 10:44:10;;;;;;;16.67;8.75;;;;;;;44.96;7.37;99843.88;4997284;28;20131;-75
2022/08/27 10:46:45;;;;;;;10.82;8.05;;;;;;;45.30;7.46;99833.47;5030363;28;20045;-75
2022/08/27 10:49:32;;;;;;;12.40;7.95;;;;;;;46.66;6.60;99824.59;5029994;28;20049;-75
2022/08/27 10:52:26;;;;;;;12.80;7.25;;;;;;;47.54;5.85;99837.81;5030164;28;20540;-75
2022/08/27 10:54:59;;;;;;;10.15;7.40;;;;;;;46.20;6.45;99846.78;4999141;28;20053;-75
2022/08/27 10:57:39;;;;;;;11.57;7.22;;;;;;;44.71;7.21;99845.53;4980999;28;20132;-75
2022/08/27 11:00:12;;;;;;;16.50;8.02;;;;;;;42.63;8.67;99837.22;5013775;28;20096;-75
2022/08/27 11:03:06;;;;;;;12.45;7.38;;;;;;;41.85;9.03;99825.34;5030029;28;20064;-77
2022/08/27 11:05:38;;;;;;;10.63;7.57;;;;;;;42.96;8.85;99815.22;5013289;28;20067;-74
2022/08/27 11:08:23;;;;;;;16.95;8.30;;;;;;;43.07;8.71;99849.81;5030108;28;20041;-74
2022/08/27 11:11:05;;;;;;;16.75;8.27;;;;;;;41.48;9.42;99825.59;5030768;28;20046;-75
2022/08/27 11:13:41;;;;;;;20.30;9.30;;;;;;;41.04;9.98;99826.72;4997014;28;20084;-74
2022/08/27 11:16:17;;;;;;;13.40;9.57;;;;;;;40.56;10.14;99831.59;4997298;28;20049;-75
2022/08/27 11:18:47;;;;;;;19.13;9.73;;;;;;;40.23;10.56;99823.38;5029722;28;20100;-75
2022/08/27 11:21:13;;;;;;;14.15;10.07;;;;;;;39.94;10.82;99824.47;5029426;28;20052;-74
2022/08/27 11:23:44;;;;;;;16.13;9.55;;;;;;;40.05;10.54;99827.59;5013436;28;20054;-77
2022/08/27 11:26:11;;;;;;;12.73;9.10;;;;;;;40.52;10.37;99831.50;5029100;28;20041;-74
2022/08/27 11:28:46;;;;;;;16.45;9.07;;;;;;;41.12;9.83;99827.78;5029865;28;20146;-75
2022/08/27 11:31:19;;;;;;;16.70;8.52;;;;;;;41.81;9.39;99822.50;5029516;28;20139;-74
2022/08/27 11:34:02;;;;;;;16.88;8.32;;;;;;;42.52;9.16;99828.63;4996746;28;20155;-75
2022/08/27 11:36:54;;;;;;;17.52;9.90;;;;;;;41.28;9.39;99831.41;5030691;28;20053;-74